createdAt,value
2023-03-12T00:01:52.030Z,7.30
2023-03-12T00:04:54.455Z,7.72
2023-03-12T00:07:59.862Z,6.47
2023-03-12T00:11:06.814Z,7.50
2023-03-12T00:14:11.355Z,6.55
2023-03-12T00:17:14.033Z,6.65
2023-03-12T00:20:16.821Z,6.45
2023-03-12T00:23:19.073Z,7.43
2023-03-12T00:26:22.232Z,6.72
2023-03-12T00:29:24.981Z,5.15
2023-03-12T00:32:28.030Z,5.10
2023-03-12T00:35:30.581Z,6.18
2023-03-12T00:38:33.014Z,6.13
2023-03-12T00:41:35.389Z,6.45
2023-03-12T00:44:37.843Z,6.40
2023-03-12T00:47:40.496Z,7.45
2023-03-12T00:50:43.792Z,5.82
2023-03-12T00:53:46.435Z,5.72
2023-03-12T00:56:49.176Z,6.32
2023-03-12T00:59:51.513Z,6.32
2023-03-12T01:02:53.959Z,5.63
2023-03-12T01:05:56.396Z,6.22
2023-03-12T01:08:58.882Z,5.68
2023-03-12T01:12:01.194Z,5.45
2023-03-12T01:15:04.903Z,4.93
2023-03-12T01:18:07.422Z,5.40
2023-03-12T01:21:10.031Z,5.32
2023-03-12T01:24:12.660Z,5.35
2023-03-12T01:27:15.263Z,5.35
2023-03-12T01:30:17.849Z,5.18
2023-03-12T01:33:23.038Z,6.03
2023-03-12T01:36:28.116Z,5.10
2023-03-12T01:39:30.777Z,5.65
2023-03-12T01:42:33.842Z,4.90
2023-03-12T01:45:51.584Z,5.35
2023-03-12T01:49:23.022Z,5.38
2023-03-12T01:52:29.576Z,5.05
2023-03-12T01:55:32.495Z,6.15
2023-03-12T01:58:37.050Z,5.70
2023-03-12T02:01:40.215Z,5.30
2023-03-12T02:04:44.408Z,6.78
2023-03-12T02:07:47.437Z,5.82
2023-03-12T02:10:50.028Z,5.35
2023-03-12T02:13:52.684Z,6.33
2023-03-12T02:16:56.951Z,5.32
2023-03-12T02:20:16.313Z,6.57
2023-03-12T02:23:32.976Z,6.10
2023-03-12T02:26:37.902Z,6.63
2023-03-12T02:29:42.209Z,6.20
2023-03-12T02:32:46.371Z,5.65
2023-03-12T02:35:49.116Z,5.70
2023-03-12T02:38:53.462Z,6.32
2023-03-12T02:41:57.970Z,6.15
2023-03-12T02:45:01.390Z,6.18
2023-03-12T02:48:04.712Z,6.60
2023-03-12T02:51:07.214Z,6.53
2023-03-12T02:54:10.219Z,6.80
2023-03-12T02:57:12.654Z,5.75
2023-03-12T03:00:16.393Z,6.78
2023-03-12T03:03:23.366Z,6.43
2023-03-12T03:06:25.854Z,7.30
2023-03-12T03:09:29.755Z,6.32
2023-03-12T03:12:33.033Z,6.70
2023-03-12T03:18:38.804Z,6.28
2023-03-12T03:21:41.535Z,6.57
2023-03-12T03:24:44.324Z,5.22
2023-03-12T03:27:46.873Z,5.93
2023-03-12T03:30:49.475Z,6.20
2023-03-12T03:33:52.260Z,6.55
2023-03-12T03:36:54.736Z,4.68
2023-03-12T03:39:58.567Z,4.53
2023-03-12T03:43:01.174Z,4.93
2023-03-12T03:46:05.935Z,5.18
2023-03-12T03:49:12.332Z,4.45
2023-03-12T03:52:16.717Z,4.82
2023-03-12T03:55:19.502Z,4.82
2023-03-12T03:58:22.094Z,3.87
2023-03-12T04:01:24.833Z,4.20
2023-03-12T04:04:27.698Z,4.32
2023-03-12T04:07:30.012Z,3.28
2023-03-12T04:10:32.440Z,3.92
2023-03-12T04:13:35.416Z,3.45
2023-03-12T04:16:37.956Z,7.00
2023-03-12T04:19:40.998Z,2.95
2023-03-12T04:22:43.399Z,3.03
2023-03-12T04:25:46.632Z,3.00
2023-03-12T04:28:49.037Z,2.80
2023-03-12T04:31:51.428Z,2.28
2023-03-12T04:34:54.029Z,4.28
2023-03-12T04:37:56.720Z,3.00
2023-03-12T04:41:05.621Z,2.42
2023-03-12T04:44:12.261Z,2.30
2023-03-12T04:47:15.655Z,2.88
2023-03-12T04:50:18.577Z,2.78
2023-03-12T04:53:21.392Z,2.17
2023-03-12T04:56:25.078Z,2.08
2023-03-12T04:59:27.471Z,1.80
2023-03-12T05:02:29.945Z,2.15
2023-03-12T05:05:32.553Z,1.92
2023-03-12T05:08:35.023Z,2.42
2023-03-12T05:11:39.842Z,2.72
2023-03-12T05:14:44.977Z,2.35
2023-03-12T05:17:47.530Z,2.25
2023-03-12T05:21:04.825Z,2.05
2023-03-12T05:24:07.640Z,2.28
2023-03-12T05:27:10.404Z,1.38
2023-03-12T05:30:13.202Z,1.07
2023-03-12T05:33:15.801Z,1.05
2023-03-12T05:36:18.333Z,2.22
2023-03-12T05:39:22.331Z,1.55
2023-03-12T05:42:25.914Z,1.83
2023-03-12T05:45:28.521Z,1.30
2023-03-12T05:48:33.742Z,2.65
2023-03-12T05:51:36.925Z,1.10
2023-03-12T05:54:39.303Z,1.55
2023-03-12T05:57:42.053Z,1.23
2023-03-12T06:00:45.290Z,1.30
2023-03-12T06:03:49.208Z,2.25
2023-03-12T06:06:51.642Z,1.25
2023-03-12T06:09:54.033Z,1.33
2023-03-12T06:12:56.457Z,1.23
2023-03-12T06:16:06.754Z,1.40
2023-03-12T06:19:14.337Z,1.83
2023-03-12T06:22:18.731Z,1.40
2023-03-12T06:25:21.524Z,1.58
2023-03-12T06:28:23.899Z,1.67
2023-03-12T06:31:27.129Z,1.67
2023-03-12T06:34:29.530Z,2.08
2023-03-12T06:37:32.577Z,1.52
2023-03-12T06:40:34.946Z,1.00
2023-03-12T06:43:38.605Z,1.50
2023-03-12T06:46:42.727Z,1.73
2023-03-12T06:49:45.465Z,1.95
2023-03-12T06:52:47.797Z,1.60
2023-03-12T06:55:51.782Z,2.20
2023-03-12T06:58:54.293Z,1.73
2023-03-12T07:01:57.152Z,1.83
2023-03-12T07:04:59.762Z,1.90
2023-03-12T07:08:02.221Z,1.90
2023-03-12T07:11:04.913Z,2.20
2023-03-12T07:14:07.312Z,1.98
2023-03-12T07:17:09.847Z,1.67
2023-03-12T07:20:12.992Z,2.13
2023-03-12T07:23:15.648Z,1.92
2023-03-12T07:26:18.488Z,1.20
2023-03-12T07:29:20.998Z,2.30
2023-03-12T07:32:23.461Z,1.98
2023-03-12T07:35:26.282Z,2.67
2023-03-12T07:38:28.979Z,1.97
2023-03-12T07:41:31.841Z,1.90
2023-03-12T07:44:36.887Z,3.72
2023-03-12T07:47:39.529Z,3.03
2023-03-12T07:50:42.110Z,2.80
2023-03-12T07:53:44.503Z,10.13
2023-03-12T07:56:46.928Z,5.20
2023-03-12T07:59:49.386Z,5.75
2023-03-12T08:02:52.548Z,2.90
2023-03-12T08:06:00.259Z,2.88
2023-03-12T08:09:02.704Z,4.28
2023-03-12T08:12:06.474Z,2.92
2023-03-12T08:15:09.576Z,2.47
2023-03-12T08:18:11.877Z,4.00
2023-03-12T08:21:16.493Z,9.10
2023-03-12T08:24:18.998Z,1.92
2023-03-12T08:27:21.414Z,3.65
2023-03-12T08:30:23.870Z,4.32
2023-03-12T08:33:26.890Z,3.92
2023-03-12T08:36:29.417Z,2.93
2023-03-12T08:39:32.061Z,2.53
2023-03-12T08:42:34.468Z,3.75
2023-03-12T08:45:37.396Z,2.92
2023-03-12T08:48:41.081Z,2.10
2023-03-12T08:51:43.619Z,2.20
2023-03-12T08:54:46.078Z,1.77
2023-03-12T08:57:48.549Z,3.28
2023-03-12T09:00:52.017Z,1.83
2023-03-12T09:03:55.473Z,1.55
2023-03-12T09:06:58.079Z,2.13
2023-03-12T09:10:00.468Z,1.73
2023-03-12T09:13:03.663Z,1.30
2023-03-12T09:16:08.038Z,1.40
2023-03-12T09:19:11.600Z,1.70
2023-03-12T09:22:15.300Z,1.65
2023-03-12T09:25:19.728Z,3.97
2023-03-12T09:28:22.959Z,1.77
2023-03-12T09:31:27.124Z,3.07
2023-03-12T09:34:30.464Z,2.40
2023-03-12T09:37:32.901Z,2.08
2023-03-12T09:40:41.545Z,1.45
2023-03-12T09:43:53.057Z,1.10
2023-03-12T09:46:58.999Z,1.85
2023-03-12T09:50:09.160Z,2.30
2023-03-12T09:53:17.884Z,2.53
2023-03-12T09:56:25.120Z,2.22
2023-03-12T09:59:29.123Z,1.23
2023-03-12T10:02:40.633Z,2.00
2023-03-12T10:05:48.226Z,1.40
2023-03-12T10:09:20.520Z,1.65
2023-03-12T10:12:46.224Z,3.47
2023-03-12T10:16:07.919Z,2.22
2023-03-12T10:19:20.769Z,1.95
2023-03-12T10:22:33.317Z,2.05
2023-03-12T10:25:53.648Z,2.67
2023-03-12T10:29:21.548Z,1.27
2023-03-12T10:32:43.140Z,1.40
2023-03-12T10:35:45.699Z,1.20
2023-03-12T10:38:51.422Z,1.67
2023-03-12T10:41:53.935Z,1.23
2023-03-12T10:45:16.127Z,1.02
2023-03-12T10:48:23.791Z,1.30
2023-03-12T10:51:26.269Z,1.10
2023-03-12T10:54:40.911Z,1.13
2023-03-12T10:57:43.399Z,1.77
2023-03-12T11:00:57.048Z,1.08
2023-03-12T11:04:18.083Z,0.80
2023-03-12T11:07:26.222Z,1.10
2023-03-12T11:10:44.687Z,1.30
2023-03-12T11:13:47.205Z,1.00
2023-03-12T11:16:50.868Z,1.20
2023-03-12T11:19:54.060Z,1.02
2023-03-12T11:22:57.052Z,1.10
2023-03-12T11:26:18.743Z,1.20
2023-03-12T11:29:29.804Z,1.23
2023-03-12T11:32:36.300Z,1.38
2023-03-12T11:36:02.208Z,1.02
2023-03-12T11:39:20.753Z,1.38
2023-03-12T11:42:58.608Z,1.10
2023-03-12T11:46:28.685Z,1.83
2023-03-12T11:49:51.970Z,1.90
2023-03-12T11:53:45.529Z,1.55
2023-03-12T11:56:55.034Z,1.58
2023-03-12T12:00:12.483Z,2.13
2023-03-12T12:03:26.750Z,1.60
2023-03-12T12:09:49.464Z,1.60
2023-03-12T12:13:07.161Z,1.85
2023-03-12T12:16:36.914Z,1.60
2023-03-12T12:19:56.002Z,1.35
2023-03-12T12:23:10.931Z,1.42
2023-03-12T12:26:14.667Z,1.70
2023-03-12T12:29:50.257Z,1.40
2023-03-12T12:33:01.051Z,1.45
2023-03-12T12:36:03.833Z,1.05
2023-03-12T12:39:20.145Z,0.98
2023-03-12T12:42:27.054Z,1.77
2023-03-12T12:45:31.146Z,1.13
2023-03-12T12:48:39.289Z,1.40
2023-03-12T12:51:45.179Z,1.10
2023-03-12T12:55:07.947Z,1.40
2023-03-12T12:58:18.343Z,1.70
2023-03-12T13:01:21.430Z,1.60
2023-03-12T13:04:31.796Z,1.07
2023-03-12T13:07:34.857Z,1.40
2023-03-12T13:10:37.643Z,1.27
2023-03-12T13:13:40.164Z,1.80
2023-03-12T13:16:47.100Z,1.48
2023-03-12T13:20:00.937Z,1.90
2023-03-12T13:23:13.686Z,1.15
2023-03-12T13:26:52.132Z,1.38
2023-03-12T13:29:58.097Z,1.85
2023-03-12T13:33:03.556Z,2.30
2023-03-12T13:36:17.960Z,2.13
2023-03-12T13:42:39.218Z,2.45
2023-03-12T13:46:07.803Z,2.28
2023-03-12T13:49:15.121Z,2.22
2023-03-12T13:52:31.176Z,2.35
2023-03-12T13:55:39.436Z,1.60
2023-03-12T13:58:47.129Z,1.60
2023-03-12T14:01:52.098Z,1.52
2023-03-12T14:04:57.757Z,1.70
2023-03-12T14:08:10.963Z,1.20
2023-03-12T14:11:25.367Z,1.30
2023-03-12T14:14:30.397Z,1.48
2023-03-12T14:17:34.429Z,1.95
2023-03-12T14:20:39.216Z,1.90
2023-03-12T14:23:56.948Z,1.67
2023-03-12T14:27:01.404Z,1.90
2023-03-12T14:30:24.179Z,1.35
2023-03-12T14:33:29.380Z,2.10
2023-03-12T14:37:00.916Z,1.95
2023-03-12T14:40:19.340Z,1.80
2023-03-12T14:43:27.745Z,4.47
2023-03-12T14:46:30.241Z,2.38
2023-03-12T14:49:32.712Z,2.45
2023-03-12T14:52:35.308Z,2.47
2023-03-12T14:55:41.387Z,1.85
2023-03-12T14:58:47.477Z,2.10
2023-03-12T15:01:49.909Z,8.95
2023-03-12T15:04:56.063Z,4.00
2023-03-12T15:08:03.025Z,5.05
2023-03-12T15:11:05.999Z,2.50
2023-03-12T15:14:14.509Z,1.60
2023-03-12T15:17:21.303Z,2.65
2023-03-12T15:20:25.150Z,3.70
2023-03-12T15:23:29.226Z,2.60
2023-03-12T15:29:42.038Z,2.97
2023-03-12T15:33:08.264Z,2.30
2023-03-12T15:36:21.293Z,2.35
2023-03-12T15:39:34.167Z,2.28
2023-03-12T15:42:40.229Z,1.90
2023-03-12T15:45:42.610Z,2.25
2023-03-12T15:48:50.506Z,2.25
2023-03-12T15:52:01.218Z,3.33
2023-03-12T15:55:15.653Z,2.47
2023-03-12T15:58:35.533Z,3.28
2023-03-12T16:01:53.010Z,2.40
2023-03-12T16:04:55.562Z,3.13
2023-03-12T16:07:58.610Z,2.70
2023-03-12T16:11:01.792Z,2.45
2023-03-12T16:14:24.692Z,3.40
2023-03-12T16:17:27.035Z,3.92
2023-03-12T16:20:29.939Z,2.70
2023-03-12T16:23:32.627Z,3.00
2023-03-12T16:26:47.280Z,3.00
2023-03-12T16:29:50.097Z,3.83
2023-03-12T16:32:52.560Z,2.80
2023-03-12T16:35:55.900Z,3.05
2023-03-12T16:38:58.357Z,2.05
2023-03-12T16:42:02.129Z,3.35
2023-03-12T16:45:05.040Z,4.15
2023-03-12T16:48:07.466Z,5.43
2023-03-12T16:51:14.858Z,6.35
2023-03-12T16:54:17.197Z,6.18
2023-03-12T16:57:40.883Z,5.28
2023-03-12T17:00:43.512Z,5.18
2023-03-12T17:03:49.689Z,4.45
2023-03-12T17:06:52.183Z,4.78
2023-03-12T17:09:55.241Z,5.38
2023-03-12T17:12:57.855Z,5.57
2023-03-12T17:16:00.387Z,5.53
2023-03-12T17:19:02.894Z,6.15
2023-03-12T17:22:05.336Z,7.80
2023-03-12T17:25:09.607Z,7.50
2023-03-12T17:28:12.609Z,13.63
2023-03-12T17:31:14.970Z,11.97
2023-03-12T17:34:18.080Z,9.23
2023-03-12T17:37:20.446Z,19.40
2023-03-12T17:40:23.414Z,17.73
2023-03-12T17:43:25.965Z,12.73
2023-03-12T17:46:29.811Z,19.02
2023-03-12T17:49:32.425Z,15.15
2023-03-12T17:52:35.092Z,13.57
2023-03-12T17:55:37.630Z,13.50
2023-03-12T17:58:40.642Z,15.70
2023-03-12T18:01:43.062Z,20.17
2023-03-12T18:04:45.439Z,15.55
2023-03-12T18:07:48.824Z,11.13
2023-03-12T18:10:51.478Z,16.10
2023-03-12T18:13:54.143Z,27.98
2023-03-12T18:16:56.568Z,17.50
2023-03-12T18:19:58.980Z,23.15
2023-03-12T18:23:01.435Z,23.65
2023-03-12T18:26:04.837Z,24.85
2023-03-12T18:29:07.248Z,17.95
2023-03-12T18:32:09.820Z,25.98
2023-03-12T18:35:12.170Z,29.48
2023-03-12T18:38:14.708Z,57.70
2023-03-12T18:41:17.276Z,48.45
2023-03-12T18:44:19.696Z,37.50
2023-03-12T18:47:22.110Z,35.63
2023-03-12T18:50:24.529Z,22.45
2023-03-12T18:53:26.894Z,27.77
2023-03-12T18:56:29.875Z,41.65
2023-03-12T18:59:32.570Z,24.60
2023-03-12T19:02:34.957Z,14.95
2023-03-12T19:05:37.379Z,12.52
2023-03-12T19:08:40.258Z,12.77
2023-03-12T19:11:42.602Z,11.95
2023-03-12T19:14:45.093Z,8.70
2023-03-12T19:17:47.531Z,14.40
2023-03-12T19:20:49.974Z,9.10
2023-03-12T19:23:53.230Z,12.68
2023-03-12T19:26:56.148Z,25.40
2023-03-12T19:29:58.676Z,17.02
2023-03-12T19:33:01.257Z,13.35
2023-03-12T19:36:04.242Z,20.10
2023-03-12T19:39:15.174Z,15.77
2023-03-12T19:42:23.186Z,11.63
2023-03-12T19:45:26.061Z,14.65
2023-03-12T19:48:28.783Z,12.70
2023-03-12T19:51:32.018Z,11.60
2023-03-12T19:54:34.609Z,13.70
2023-03-12T19:57:37.041Z,14.93
2023-03-12T20:00:39.586Z,11.98
2023-03-12T20:03:43.825Z,23.05
2023-03-12T20:06:46.424Z,20.02
2023-03-12T20:09:48.804Z,25.90
2023-03-12T20:12:51.119Z,26.50
2023-03-12T20:15:53.705Z,20.75
2023-03-12T20:18:55.967Z,29.17
2023-03-12T20:21:58.355Z,36.13
2023-03-12T20:25:01.062Z,38.97
2023-03-12T20:28:03.744Z,30.35
2023-03-12T20:31:10.459Z,22.70
2023-03-12T20:34:13.046Z,20.52
2023-03-12T20:37:15.362Z,47.33
2023-03-12T20:40:18.072Z,22.80
2023-03-12T20:43:20.317Z,20.42
2023-03-12T20:46:23.210Z,18.17
2023-03-12T20:49:25.835Z,18.92
2023-03-12T20:52:28.316Z,19.92
2023-03-12T20:55:30.841Z,14.15
2023-03-12T20:58:33.441Z,14.55
2023-03-12T21:01:36.180Z,15.82
2023-03-12T21:04:38.850Z,17.23
2023-03-12T21:07:41.451Z,15.77
2023-03-12T21:10:43.723Z,16.17
2023-03-12T21:13:46.306Z,14.20
2023-03-12T21:16:49.300Z,15.95
2023-03-12T21:19:51.669Z,11.93
2023-03-12T21:22:54.286Z,18.20
2023-03-12T21:26:00.960Z,18.60
2023-03-12T21:29:03.608Z,17.95
2023-03-12T21:32:06.225Z,19.92
2023-03-12T21:35:09.826Z,28.00
2023-03-12T21:38:12.895Z,21.92
2023-03-12T21:41:19.150Z,17.70
2023-03-12T21:44:21.674Z,22.38
2023-03-12T21:47:24.439Z,17.80
2023-03-12T21:50:26.938Z,17.70
2023-03-12T21:53:29.627Z,21.05
2023-03-12T21:56:32.294Z,28.27
2023-03-12T21:59:34.648Z,17.17
2023-03-12T22:02:36.980Z,17.65
2023-03-12T22:05:39.415Z,21.23
2023-03-12T22:08:42.545Z,18.42
2023-03-12T22:11:45.496Z,14.70
2023-03-12T22:14:47.925Z,15.63
2023-03-12T22:17:51.134Z,14.75
2023-03-12T22:20:54.776Z,15.75
2023-03-12T22:23:58.740Z,14.35
2023-03-12T22:27:03.395Z,14.60
2023-03-12T22:30:06.332Z,14.27
2023-03-12T22:33:08.994Z,10.98
2023-03-12T22:36:13.256Z,14.93
2023-03-12T22:39:17.502Z,13.98
2023-03-12T22:42:20.017Z,15.10
2023-03-12T22:45:23.201Z,13.70
2023-03-12T22:48:25.666Z,12.30
2023-03-12T22:51:30.138Z,12.32
2023-03-12T22:54:32.408Z,14.10
2023-03-12T22:57:36.210Z,13.63
2023-03-12T23:00:38.624Z,13.70
2023-03-12T23:03:43.068Z,14.25
2023-03-12T23:06:45.510Z,14.05
2023-03-12T23:09:48.286Z,14.10
2023-03-12T23:12:51.083Z,13.65
2023-03-12T23:15:54.165Z,13.63
2023-03-12T23:18:56.761Z,10.32
2023-03-12T23:21:59.360Z,13.52
2023-03-12T23:25:01.694Z,12.40
2023-03-12T23:28:05.344Z,11.60
2023-03-12T23:31:09.032Z,11.70
2023-03-12T23:34:11.397Z,9.35
2023-03-12T23:37:14.445Z,10.18
2023-03-12T23:40:17.299Z,8.55
2023-03-12T23:43:19.648Z,6.63
2023-03-12T23:46:22.281Z,6.90
2023-03-12T23:49:24.697Z,7.53
2023-03-12T23:52:27.708Z,7.47
2023-03-12T23:55:30.158Z,8.67
2023-03-12T23:58:32.645Z,7.85
